Time;durP1;ratioP1;P1;durP2;ratioP2;P2;SDS_P1;SDS_P2;PMS_P1;PMS_P2;Temp;Humidity;BMP_temperature;BMP_pressure;BME280_temperature;BME280_humidity;BME280_pressure;Samples;Min_cycle;Max_cycle;Signal;HPM_P1;HPM_P2
2023/06/15 00:00:31;;;;;;;6.45;4.45;;;14.30;99.90;;;;;;5036520;28;20175;-35
2023/06/15 00:02:57;;;;;;;8.75;4.60;;;14.20;99.90;;;;;;5040405;28;20041;-33
2023/06/15 00:05:23;;;;;;;5.00;4.50;;;14.20;99.90;;;;;;5041816;28;20040;-33
2023/06/15 00:07:48;;;;;;;6.85;4.63;;;14.20;99.90;;;;;;5042825;28;20033;-33
2023/06/15 00:10:14;;;;;;;4.57;4.18;;;14.20;99.90;;;;;;5036215;28;20044;-36
2023/06/15 00:12:40;;;;;;;6.13;4.70;;;14.20;99.90;;;;;;5043250;28;20028;-34
2023/06/15 00:15:06;;;;;;;6.60;4.47;;;14.20;99.90;;;;;;5034026;28;20040;-35
2023/06/15 00:17:32;;;;;;;5.57;4.85;;;14.10;99.90;;;;;;5040887;28;20029;-33
2023/06/15 00:20:00;;;;;;;4.95;4.32;;;13.90;99.90;;;;;;5039600;28;20101;-34
2023/06/15 00:22:26;;;;;;;5.55;4.63;;;13.80;99.90;;;;;;5039569;28;20037;-34
2023/06/15 00:24:53;;;;;;;6.35;5.18;;;13.70;99.90;;;;;;5043213;28;20048;-33
2023/06/15 00:27:18;;;;;;;6.10;5.20;;;13.80;99.90;;;;;;5036327;28;20038;-38
2023/06/15 00:29:44;;;;;;;7.88;4.70;;;13.70;99.90;;;;;;5044973;28;20033;-35
2023/06/15 00:32:10;;;;;;;7.35;4.97;;;13.70;99.90;;;;;;5037968;28;20501;-35
2023/06/15 00:34:35;;;;;;;6.45;5.20;;;13.70;99.90;;;;;;5040077;28;20080;-33
2023/06/15 00:37:01;;;;;;;6.00;5.13;;;13.60;99.90;;;;;;5041570;28;20086;-34
2023/06/15 00:39:27;;;;;;;5.72;5.10;;;13.50;99.90;;;;;;5042106;28;20029;-35
2023/06/15 00:41:52;;;;;;;5.40;4.90;;;13.30;99.90;;;;;;5043413;28;20033;-30
2023/06/15 00:44:18;;;;;;;5.72;4.90;;;13.20;99.90;;;;;;5040154;28;20079;-34
2023/06/15 00:46:44;;;;;;;6.03;5.15;;;13.30;99.90;;;;;;5036955;28;20108;-33
2023/06/15 00:49:09;;;;;;;6.00;5.40;;;13.30;99.90;;;;;;5040111;28;20037;-33
2023/06/15 00:51:38;;;;;;;8.10;5.53;;;13.20;99.90;;;;;;5040013;28;20356;-36
2023/06/15 00:54:05;;;;;;;8.00;5.10;;;13.30;99.90;;;;;;5043433;28;20021;-33
2023/06/15 00:56:30;;;;;;;5.65;5.05;;;13.30;99.90;;;;;;5041014;28;20083;-34
2023/06/15 00:58:57;;;;;;;6.28;4.97;;;13.30;99.90;;;;;;5040457;28;20029;-35
2023/06/15 01:01:23;;;;;;;6.65;5.15;;;13.30;99.90;;;;;;5042246;28;20545;-34
2023/06/15 01:03:50;;;;;;;6.00;4.93;;;13.30;99.90;;;;;;5044405;28;20140;-37
2023/06/15 01:06:18;;;;;;;5.88;4.82;;;13.30;99.90;;;;;;5046146;28;20047;-37
2023/06/15 01:08:47;;;;;;;5.20;4.53;;;13.30;99.90;;;;;;5043102;28;20029;-35
2023/06/15 01:11:14;;;;;;;7.22;5.30;;;13.30;99.90;;;;;;5040720;28;20055;-33
2023/06/15 01:13:44;;;;;;;7.47;5.20;;;13.30;99.90;;;;;;5047602;28;20124;-35
2023/06/15 01:16:18;;;;;;;6.90;5.40;;;13.30;99.90;;;;;;5030768;28;20167;-33
2023/06/15 01:18:47;;;;;;;8.38;5.90;;;13.30;99.90;;;;;;5044952;28;20063;-34
2023/06/15 01:21:16;;;;;;;8.65;5.30;;;13.10;99.90;;;;;;5044967;28;20036;-34
2023/06/15 01:23:50;;;;;;;5.88;5.03;;;13.20;99.90;;;;;;5044973;28;20116;-36
2023/06/15 01:26:18;;;;;;;6.20;5.35;;;13.10;99.90;;;;;;5043612;28;20034;-33
2023/06/15 01:28:49;;;;;;;6.63;5.32;;;13.10;99.90;;;;;;5044123;28;20489;-33
2023/06/15 01:31:17;;;;;;;8.02;5.97;;;13.10;99.90;;;;;;5041620;28;20038;-34
2023/06/15 01:33:50;;;;;;;6.75;5.28;;;13.10;99.90;;;;;;5042242;28;20532;-34
2023/06/15 01:36:17;;;;;;;7.00;5.57;;;13.00;99.90;;;;;;5042983;28;20148;-35
2023/06/15 01:38:44;;;;;;;5.65;5.07;;;12.80;99.90;;;;;;5043746;28;20056;-33
2023/06/15 01:41:11;;;;;;;7.22;5.28;;;12.80;99.90;;;;;;5041167;28;20033;-35
2023/06/15 01:43:38;;;;;;;5.72;5.07;;;12.80;99.90;;;;;;5042606;28;20061;-34
2023/06/15 01:46:05;;;;;;;7.53;5.40;;;12.80;99.90;;;;;;5042373;28;20017;-34
2023/06/15 01:48:31;;;;;;;5.78;5.20;;;12.80;99.90;;;;;;5045375;28;20351;-40
2023/06/15 01:50:57;;;;;;;5.05;4.50;;;12.80;99.90;;;;;;5043750;28;20027;-43
2023/06/15 01:53:23;;;;;;;6.00;4.85;;;12.80;99.90;;;;;;5045399;28;20052;-39
2023/06/15 01:55:50;;;;;;;5.97;4.82;;;12.80;99.90;;;;;;5043161;28;20112;-42
2023/06/15 01:58:15;;;;;;;6.30;5.15;;;12.80;99.90;;;;;;5045196;28;20032;-42
2023/06/15 02:01:34;;;;;;;6.00;4.80;;;12.70;99.90;;;;;;5039982;28;20099;-42
2023/06/15 02:04:00;;;;;;;6.90;5.55;;;12.60;99.90;;;;;;5043197;28;20585;-41
2023/06/15 02:06:25;;;;;;;6.43;5.38;;;12.60;99.90;;;;;;5041894;28;20115;-42
2023/06/15 02:08:51;;;;;;;6.90;4.82;;;12.60;99.90;;;;;;5041613;28;20083;-39
2023/06/15 02:11:18;;;;;;;5.40;4.90;;;12.50;99.90;;;;;;5041416;28;20021;-42
2023/06/15 02:13:44;;;;;;;7.93;5.60;;;12.50;99.90;;;;;;5041366;28;20025;-41
2023/06/15 02:16:11;;;;;;;6.00;5.40;;;12.40;99.90;;;;;;5040771;28;20144;-43
2023/06/15 02:18:37;;;;;;;6.47;4.97;;;12.40;99.90;;;;;;5039675;28;20044;-42
2023/06/15 02:21:03;;;;;;;7.00;5.07;;;12.40;99.90;;;;;;5041438;28;20533;-41
2023/06/15 02:23:28;;;;;;;6.70;4.85;;;12.40;99.90;;;;;;5040863;28;20029;-42
2023/06/15 02:25:54;;;;;;;6.75;5.85;;;12.40;99.90;;;;;;5040358;28;20037;-41
2023/06/15 02:28:20;;;;;;;5.63;5.13;;;12.30;99.90;;;;;;5041625;28;20028;-42
2023/06/15 02:30:45;;;;;;;7.90;5.53;;;12.40;99.90;;;;;;5038633;28;20115;-42
2023/06/15 02:33:12;;;;;;;8.07;5.03;;;12.40;99.90;;;;;;5040554;28;20498;-40
2023/06/15 02:35:38;;;;;;;6.30;5.22;;;12.30;99.90;;;;;;5039860;28;20449;-41
2023/06/15 02:38:04;;;;;;;7.47;5.22;;;12.20;99.90;;;;;;5039617;28;20187;-37
2023/06/15 02:40:29;;;;;;;7.82;5.78;;;12.10;99.90;;;;;;5044140;28;20646;-38
2023/06/15 02:42:55;;;;;;;7.20;4.72;;;11.80;99.90;;;;;;5041658;28;20386;-39
2023/06/15 02:45:20;;;;;;;7.35;5.30;;;11.50;99.90;;;;;;5044244;28;20033;-41
2023/06/15 02:47:47;;;;;;;6.70;4.90;;;11.30;99.90;;;;;;5028233;28;20030;-41
2023/06/15 02:50:12;;;;;;;8.00;5.43;;;11.20;99.90;;;;;;5042630;28;20028;-37
2023/06/15 02:52:38;;;;;;;6.30;5.60;;;11.30;99.90;;;;;;5044236;28;20025;-42
2023/06/15 02:55:04;;;;;;;5.88;4.78;;;11.30;99.90;;;;;;5044288;28;20367;-40
2023/06/15 02:57:29;;;;;;;6.55;5.13;;;11.30;99.90;;;;;;5045588;28;20445;-42
2023/06/15 02:59:55;;;;;;;5.57;5.00;;;11.20;99.90;;;;;;5041337;28;20036;-42
2023/06/15 03:02:21;;;;;;;9.32;5.15;;;11.40;99.90;;;;;;5042669;28;20118;-42
2023/06/15 03:04:50;;;;;;;5.85;5.25;;;11.40;99.90;;;;;;5042904;28;20518;-42
2023/06/15 03:07:20;;;;;;;7.05;5.28;;;11.30;99.90;;;;;;5041137;28;20034;-30
2023/06/15 03:09:53;;;;;;;8.05;5.03;;;11.20;99.90;;;;;;5029036;28;20033;-32
2023/06/15 03:12:19;;;;;;;7.07;5.15;;;11.20;99.90;;;;;;5035412;28;20107;-31
2023/06/15 03:14:49;;;;;;;4.93;4.50;;;11.30;99.90;;;;;;5038436;28;20727;-32
2023/06/15 03:17:16;;;;;;;6.60;4.90;;;11.20;99.90;;;;;;5041373;28;20065;-32
2023/06/15 03:19:44;;;;;;;5.80;5.03;;;11.20;99.90;;;;;;5039098;28;20079;-31
2023/06/15 03:22:10;;;;;;;6.90;5.50;;;11.00;99.90;;;;;;5038009;28;20091;-35
2023/06/15 03:24:36;;;;;;;6.13;5.28;;;11.00;99.90;;;;;;5036288;28;20040;-32
2023/06/15 03:27:04;;;;;;;6.13;5.00;;;11.00;99.90;;;;;;5038316;28;20091;-34
2023/06/15 03:29:31;;;;;;;6.72;5.28;;;11.00;99.90;;;;;;5037987;28;20035;-33
2023/06/15 03:32:00;;;;;;;5.13;4.65;;;10.80;99.90;;;;;;5032705;28;20132;-31
2023/06/15 03:34:26;;;;;;;5.82;5.22;;;10.90;99.90;;;;;;5037096;28;20049;-33
2023/06/15 03:36:52;;;;;;;7.20;5.22;;;10.90;99.90;;;;;;5041379;28;20055;-31
2023/06/15 03:39:18;;;;;;;5.78;4.85;;;10.90;99.90;;;;;;5039202;28;20041;-31
2023/06/15 03:41:44;;;;;;;5.70;5.20;;;10.90;99.90;;;;;;5041916;28;20390;-32
2023/06/15 03:44:10;;;;;;;7.05;5.38;;;10.90;99.90;;;;;;5044093;28;20040;-32
2023/06/15 03:46:36;;;;;;;6.32;5.72;;;10.90;99.90;;;;;;5042511;28;20037;-34
2023/06/15 03:49:01;;;;;;;7.20;5.90;;;10.90;99.90;;;;;;5040625;28;20560;-38
2023/06/15 03:51:27;;;;;;;7.53;5.40;;;10.80;99.90;;;;;;5044424;28;20051;-32
2023/06/15 03:53:53;;;;;;;9.25;5.03;;;10.70;99.90;;;;;;5042222;28;20029;-32
2023/06/15 03:56:18;;;;;;;6.43;5.30;;;10.90;99.90;;;;;;5028830;28;20033;-31
2023/06/15 03:58:44;;;;;;;7.47;5.82;;;11.00;99.90;;;;;;5036439;28;20106;-31
2023/06/15 04:01:12;;;;;;;5.90;5.30;;;11.00;99.90;;;;;;5038200;28;20033;-31
2023/06/15 04:03:39;;;;;;;6.45;5.60;;;11.10;99.90;;;;;;5041103;28;20445;-30
2023/06/15 04:06:05;;;;;;;9.75;5.38;;;11.10;99.90;;;;;;5038443;28;20483;-31
2023/06/15 04:08:35;;;;;;;6.85;5.55;;;11.10;99.90;;;;;;5040714;28;20038;-39
2023/06/15 04:11:01;;;;;;;10.63;5.95;;;11.20;99.90;;;;;;5038290;28;20548;-40
2023/06/15 04:13:27;;;;;;;7.65;5.43;;;11.20;99.90;;;;;;5040893;28;20379;-40
2023/06/15 04:15:53;;;;;;;6.82;5.53;;;11.30;99.90;;;;;;5039736;28;20036;-41
2023/06/15 04:18:20;;;;;;;7.15;5.78;;;11.30;99.90;;;;;;5039966;28;20033;-41
2023/06/15 04:20:45;;;;;;;6.10;5.45;;;11.40;99.90;;;;;;5036694;28;20036;-41
2023/06/15 04:23:11;;;;;;;7.25;5.28;;;11.40;99.90;;;;;;5037881;28;20498;-43
2023/06/15 04:25:37;;;;;;;5.78;5.28;;;11.40;99.90;;;;;;5040352;28;20040;-35
2023/06/15 04:28:05;;;;;;;6.38;5.18;;;11.40;99.90;;;;;;5040639;28;20108;-41
2023/06/15 04:30:31;;;;;;;;;;;11.50;99.90;;;;;;5041802;28;20090;-39
2023/06/15 04:32:59;;;;;;;7.13;5.10;;;11.60;99.90;;;;;;5038482;28;20362;-42
2023/06/15 04:35:28;;;;;;;;;;;11.60;99.90;;;;;;5040925;28;20044;-39
2023/06/15 04:37:57;;;;;;;7.40;5.50;;;11.70;99.90;;;;;;5041655;28;19913;-40
2023/06/15 04:40:22;;;;;;;5.47;4.97;;;11.60;99.90;;;;;;5045601;28;20064;-42
2023/06/15 04:42:48;;;;;;;5.90;5.30;;;11.60;99.90;;;;;;5040221;28;20502;-41
2023/06/15 04:45:14;;;;;;;7.82;5.70;;;11.70;99.90;;;;;;5037679;28;20041;-38
2023/06/15 04:47:41;;;;;;;6.88;5.63;;;11.80;99.90;;;;;;5041318;28;20021;-40
2023/06/15 04:50:08;;;;;;;8.13;5.97;;;11.90;99.90;;;;;;5036870;28;20446;-41
2023/06/15 04:52:34;;;;;;;6.65;5.88;;;12.00;99.90;;;;;;5035953;28;20486;-43
2023/06/15 04:55:00;;;;;;;7.50;5.72;;;12.20;99.90;;;;;;5036701;28;20029;-40
2023/06/15 04:57:25;;;;;;;6.88;5.95;;;12.20;99.90;;;;;;5037693;28;20380;-41
2023/06/15 04:59:51;;;;;;;7.88;5.57;;;12.20;99.90;;;;;;5040342;28;20033;-42
2023/06/15 05:02:17;;;;;;;8.43;6.13;;;12.30;99.90;;;;;;5038554;28;20034;-42
2023/06/15 05:04:43;;;;;;;7.20;6.25;;;12.30;99.90;;;;;;5037007;28;20033;-43
2023/06/15 05:07:08;;;;;;;6.70;5.93;;;12.40;99.90;;;;;;5035981;28;20033;-39
2023/06/15 05:09:34;;;;;;;11.15;6.40;;;12.40;99.90;;;;;;5036690;28;20104;-42
2023/06/15 05:12:01;;;;;;;8.32;5.93;;;12.50;99.90;;;;;;5039554;28;20863;-37
2023/06/15 05:14:26;;;;;;;10.43;6.88;;;12.50;99.90;;;;;;5038728;28;20039;-42
2023/06/15 05:16:53;;;;;;;8.00;6.15;;;12.60;99.90;;;;;;5038512;28;20029;-43
2023/06/15 05:19:19;;;;;;;10.90;6.53;;;12.70;99.90;;;;;;5040597;28;20135;-40
2023/06/15 05:21:49;;;;;;;7.70;6.40;;;12.70;99.90;;;;;;5024699;28;20029;-39
2023/06/15 05:24:15;;;;;;;8.18;6.72;;;12.80;99.90;;;;;;5038721;28;20745;-40
2023/06/15 05:26:40;;;;;;;7.32;6.63;;;12.90;99.90;;;;;;5041792;28;20063;-40
2023/06/15 05:29:06;;;;;;;7.95;6.40;;;13.00;99.90;;;;;;5037379;28;20108;-36
2023/06/15 05:31:32;;;;;;;10.07;6.80;;;13.10;99.90;;;;;;5040474;28;20391;-36
2023/06/15 05:33:58;;;;;;;8.25;6.63;;;13.20;99.90;;;;;;5037508;28;20491;-33
2023/06/15 05:36:30;;;;;;;10.20;6.60;;;13.30;99.90;;;;;;5039344;28;20103;-35
2023/06/15 05:38:56;;;;;;;7.90;6.30;;;13.40;99.90;;;;;;5046430;28;20799;-35
2023/06/15 05:41:22;;;;;;;7.50;6.63;;;13.60;99.90;;;;;;5043520;28;20508;-35
2023/06/15 05:43:48;;;;;;;8.20;6.95;;;13.80;99.90;;;;;;5046163;28;20033;-34
2023/06/15 05:46:13;;;;;;;10.23;7.03;;;13.90;99.90;;;;;;5041395;28;20047;-33
2023/06/15 05:48:39;;;;;;;9.20;6.35;;;14.00;99.90;;;;;;5041197;28;20434;-34
2023/06/15 05:51:04;;;;;;;7.05;6.40;;;14.10;99.90;;;;;;5037804;28;20071;-37
2023/06/15 05:53:30;;;;;;;8.50;7.15;;;14.40;99.90;;;;;;5037096;28;20029;-35
2023/06/15 05:55:56;;;;;;;8.80;7.40;;;14.50;99.90;;;;;;5039536;28;20494;-33
2023/06/15 05:58:21;;;;;;;9.65;7.35;;;14.70;99.90;;;;;;5041917;28;20029;-33
2023/06/15 06:00:47;;;;;;;9.48;7.80;;;14.90;99.90;;;;;;5020458;28;20437;-34
2023/06/15 06:03:12;;;;;;;7.93;6.90;;;15.20;99.90;;;;;;5039888;28;20177;-37
2023/06/15 06:05:38;;;;;;;9.77;7.32;;;15.40;99.90;;;;;;5040041;28;20079;-35
2023/06/15 06:08:04;;;;;;;12.70;7.90;;;15.50;99.90;;;;;;5042285;28;20033;-38
2023/06/15 06:10:30;;;;;;;11.63;6.68;;;15.70;99.90;;;;;;5044837;28;20014;-36
2023/06/15 06:12:55;;;;;;;8.88;7.25;;;15.90;99.90;;;;;;5044271;28;20056;-36
2023/06/15 06:15:21;;;;;;;8.68;6.60;;;16.00;99.90;;;;;;5041813;28;20104;-32
2023/06/15 06:17:47;;;;;;;7.93;6.55;;;16.10;99.90;;;;;;5043512;28;20112;-36
2023/06/15 06:20:13;;;;;;;8.70;5.97;;;16.20;99.90;;;;;;5042736;28;20037;-36
2023/06/15 06:22:38;;;;;;;9.82;6.50;;;16.40;99.90;;;;;;5047896;28;20029;-33
2023/06/15 06:25:04;;;;;;;7.63;6.38;;;16.40;99.90;;;;;;5045496;28;20127;-33
2023/06/15 06:27:30;;;;;;;7.55;6.15;;;16.50;99.90;;;;;;5047376;28;20091;-35
2023/06/15 06:29:58;;;;;;;7.38;6.57;;;16.70;99.90;;;;;;5041643;28;20021;-35
2023/06/15 06:32:23;;;;;;;6.68;5.78;;;16.70;99.90;;;;;;5042298;28;20064;-36
2023/06/15 06:34:49;;;;;;;10.43;6.40;;;16.80;99.90;;;;;;5037052;28;20080;-34
2023/06/15 06:37:14;;;;;;;6.60;5.82;;;16.90;99.90;;;;;;5039482;28;20119;-37
2023/06/15 06:39:40;;;;;;;7.00;5.97;;;17.00;99.90;;;;;;5039845;28;20048;-39
2023/06/15 06:42:06;;;;;;;8.32;6.05;;;17.00;99.90;;;;;;5036285;28;20068;-36
2023/06/15 06:44:32;;;;;;;8.50;6.28;;;17.20;99.90;;;;;;5040729;28;20061;-41
2023/06/15 06:46:57;;;;;;;6.53;5.50;;;17.30;99.90;;;;;;5034203;28;20466;-40
2023/06/15 06:49:23;;;;;;;6.32;5.05;;;17.50;99.90;;;;;;5035565;28;20033;-41
2023/06/15 06:51:48;;;;;;;7.38;5.05;;;17.60;99.90;;;;;;5038607;28;20418;-39
2023/06/15 06:54:14;;;;;;;5.93;4.82;;;17.70;99.90;;;;;;5040190;28;20033;-40
2023/06/15 06:56:39;;;;;;;5.95;5.32;;;17.70;99.90;;;;;;5042166;28;20449;-39
2023/06/15 06:59:05;;;;;;;7.80;4.85;;;17.80;99.90;;;;;;5040527;28;20026;-41
2023/06/15 07:01:31;;;;;;;6.50;5.85;;;17.90;99.90;;;;;;5035468;28;20029;-41
2023/06/15 07:03:56;;;;;;;6.40;5.00;;;18.00;99.90;;;;;;5039231;28;20052;-40
2023/06/15 07:06:22;;;;;;;5.93;4.82;;;18.10;99.90;;;;;;5039543;28;20033;-41
2023/06/15 07:08:48;;;;;;;6.80;4.70;;;18.20;99.90;;;;;;5043354;28;20378;-40
2023/06/15 07:11:14;;;;;;;5.50;4.50;;;18.50;99.90;;;;;;5036378;28;20053;-40
2023/06/15 07:13:40;;;;;;;5.72;4.20;;;18.50;99.90;;;;;;5041874;28;20052;-39
2023/06/15 07:16:06;;;;;;;5.70;4.85;;;18.70;99.90;;;;;;5045078;28;20060;-39
2023/06/15 07:18:32;;;;;;;7.30;4.97;;;18.60;99.90;;;;;;5041834;28;20021;-41
2023/06/15 07:20:58;;;;;;;5.60;4.72;;;18.70;99.90;;;;;;5043085;28;20103;-41
2023/06/15 07:23:24;;;;;;;5.95;4.53;;;18.90;99.90;;;;;;5038668;28;20530;-37
2023/06/15 07:25:52;;;;;;;7.07;4.93;;;18.90;99.90;;;;;;5043329;28;20029;-39
2023/06/15 07:28:18;;;;;;;5.27;4.73;;;19.00;99.90;;;;;;5042549;28;20033;-41
2023/06/15 07:30:46;;;;;;;5.10;4.65;;;19.00;99.90;;;;;;5041070;28;20286;-40
2023/06/15 07:33:11;;;;;;;5.63;4.95;;;19.10;99.90;;;;;;5037435;28;20132;-41
2023/06/15 07:35:37;;;;;;;5.82;5.22;;;19.10;99.90;;;;;;5036496;28;20116;-40
2023/06/15 07:38:03;;;;;;;6.05;5.10;;;19.10;99.90;;;;;;5035714;28;20037;-40
2023/06/15 07:40:29;;;;;;;6.65;5.10;;;19.10;99.90;;;;;;5040385;28;20044;-40
2023/06/15 07:42:54;;;;;;;6.00;4.82;;;19.20;99.90;;;;;;5036761;28;20754;-41
2023/06/15 07:45:20;;;;;;;6.35;5.05;;;19.40;99.90;;;;;;5016279;28;20033;-41
2023/06/15 07:47:46;;;;;;;6.00;4.78;;;19.50;99.90;;;;;;5042816;28;20485;-39
2023/06/15 07:50:11;;;;;;;8.20;5.78;;;19.90;99.90;;;;;;5040073;28;20032;-41
2023/06/15 07:52:37;;;;;;;6.70;4.97;;;19.90;99.90;;;;;;5042593;28;20032;-37
2023/06/15 07:55:04;;;;;;;5.72;5.20;;;19.90;99.90;;;;;;5038471;28;20112;-41
2023/06/15 07:57:30;;;;;;;6.07;5.18;;;19.90;99.90;;;;;;5042482;28;20402;-40
2023/06/15 07:59:57;;;;;;;6.70;5.35;;;19.80;99.90;;;;;;5041309;28;20036;-41
2023/06/15 08:02:22;;;;;;;4.95;4.45;;;19.80;99.90;;;;;;5042658;28;20040;-41
2023/06/15 08:04:48;;;;;;;5.68;5.03;;;19.90;99.90;;;;;;5031479;28;20029;-40
2023/06/15 08:07:13;;;;;;;4.88;4.45;;;19.90;99.90;;;;;;5043975;28;20044;-40
2023/06/15 08:09:39;;;;;;;6.82;4.65;;;20.10;99.90;;;;;;5043609;28;20110;-41
2023/06/15 08:12:05;;;;;;;7.22;4.90;;;20.20;99.90;;;;;;5042779;28;20206;-40
2023/06/15 08:14:31;;;;;;;6.90;4.88;;;20.20;99.90;;;;;;5043875;28;20029;-41
2023/06/15 08:16:56;;;;;;;7.97;4.75;;;20.20;99.90;;;;;;5040954;28;20021;-41
2023/06/15 08:19:22;;;;;;;5.30;4.80;;;20.40;99.90;;;;;;5036694;28;20453;-40
2023/06/15 08:21:48;;;;;;;5.35;4.47;;;20.40;99.90;;;;;;5038123;28;20822;-39
2023/06/15 08:24:13;;;;;;;7.30;4.57;;;20.40;99.90;;;;;;5039535;28;20025;-41
2023/06/15 08:26:40;;;;;;;6.65;4.60;;;20.60;99.90;;;;;;5037340;28;20078;-36
2023/06/15 08:29:05;;;;;;;7.18;4.75;;;20.90;99.90;;;;;;5036704;28;20040;-39
2023/06/15 08:31:33;;;;;;;4.95;4.47;;;21.10;99.90;;;;;;5032748;28;20394;-40
2023/06/15 08:33:59;;;;;;;4.93;4.50;;;20.90;99.90;;;;;;5039510;28;20056;-38
2023/06/15 08:36:25;;;;;;;8.00;4.78;;;21.10;99.90;;;;;;5040909;28;20047;-40
2023/06/15 08:38:50;;;;;;;5.15;4.53;;;21.00;99.90;;;;;;5040118;28;20059;-39
2023/06/15 08:41:17;;;;;;;8.93;4.35;;;20.90;99.90;;;;;;5035481;28;20033;-39
2023/06/15 08:43:44;;;;;;;4.90;3.90;;;20.90;99.90;;;;;;5041243;28;20030;-40
2023/06/15 08:46:11;;;;;;;6.07;4.57;;;21.00;99.90;;;;;;5039735;28;20037;-39
2023/06/15 08:48:38;;;;;;;6.60;4.70;;;20.90;99.90;;;;;;5034546;28;20056;-33
2023/06/15 08:51:12;;;;;;;5.97;5.30;;;20.90;99.90;;;;;;5023979;28;20028;-32
2023/06/15 08:53:42;;;;;;;5.20;4.43;;;21.00;99.90;;;;;;5027438;28;20029;-32
2023/06/15 08:56:13;;;;;;;4.97;4.47;;;21.20;99.90;;;;;;5041997;28;20775;-33
2023/06/15 08:58:41;;;;;;;5.32;4.75;;;21.40;99.90;;;;;;5042842;28;20033;-42
2023/06/15 09:01:10;;;;;;;5.47;4.67;;;21.40;99.90;;;;;;5040856;28;20053;-42
2023/06/15 09:03:36;;;;;;;6.47;5.32;;;21.30;99.90;;;;;;5039403;28;20110;-41
2023/06/15 09:06:02;;;;;;;7.30;4.85;;;21.20;99.90;;;;;;5034523;28;20112;-39
2023/06/15 09:08:28;;;;;;;5.63;4.68;;;21.20;99.90;;;;;;5035575;28;21287;-41
2023/06/15 09:11:08;;;;;;;5.28;4.78;;;21.20;99.90;;;;;;5037290;28;20099;-42
2023/06/15 09:13:34;;;;;;;7.65;5.22;;;21.50;99.90;;;;;;5038546;28;20387;-40
2023/06/15 09:16:02;;;;;;;6.55;4.53;;;21.60;99.90;;;;;;5045065;28;20036;-37
2023/06/15 09:18:27;;;;;;;5.47;4.97;;;21.90;99.90;;;;;;5044301;28;20031;-41
2023/06/15 09:21:00;;;;;;;5.88;4.95;;;21.80;99.90;;;;;;5028677;28;20724;-41
2023/06/15 09:23:26;;;;;;;9.00;5.28;;;21.80;99.90;;;;;;5044357;28;20554;-41
2023/06/15 09:25:56;;;;;;;5.40;4.90;;;21.80;99.90;;;;;;5042388;28;20052;-35
2023/06/15 09:28:27;;;;;;;4.45;3.97;;;21.80;99.90;;;;;;5044270;28;20034;-40
2023/06/15 09:30:56;;;;;;;5.18;4.68;;;21.90;99.90;;;;;;5042965;28;20059;-42
2023/06/15 09:33:22;;;;;;;4.78;4.32;;;21.80;99.90;;;;;;5044629;28;20371;-42
2023/06/15 09:36:00;;;;;;;5.60;4.82;;;21.80;99.90;;;;;;5046652;28;20040;-42
2023/06/15 09:38:32;;;;;;;5.13;4.65;;;21.60;99.90;;;;;;5047404;28;20036;-40
2023/06/15 09:41:05;;;;;;;7.22;4.60;;;21.20;99.90;;;;;;5042095;28;20537;-36
2023/06/15 09:43:34;;;;;;;5.53;4.30;;;20.80;99.90;;;;;;5044869;28;20029;-42
2023/06/15 09:46:01;;;;;;;9.95;5.57;;;20.60;99.90;;;;;;5034805;28;20033;-42
2023/06/15 09:48:30;;;;;;;6.55;4.57;;;20.50;99.90;;;;;;5041676;28;20030;-42
2023/06/15 09:51:01;;;;;;;5.53;4.68;;;20.50;99.90;;;;;;5044282;28;20045;-41
2023/06/15 09:53:29;;;;;;;5.90;4.05;;;20.50;99.90;;;;;;5043342;28;20382;-42
2023/06/15 09:55:55;;;;;;;5.28;4.18;;;20.60;99.90;;;;;;5044311;28;20841;-41
2023/06/15 09:58:20;;;;;;;5.80;3.70;;;21.10;99.90;;;;;;5045453;28;20073;-33
2023/06/15 10:00:48;;;;;;;5.22;3.70;;;21.70;99.90;;;;;;5040276;28;20447;-36
2023/06/15 10:03:19;;;;;;;4.35;3.80;;;22.00;99.90;;;;;;5042984;28;20029;-35
2023/06/15 10:05:47;;;;;;;4.82;4.00;;;22.40;99.90;;;;;;5040737;28;20087;-36
2023/06/15 10:08:16;;;;;;;4.28;3.88;;;22.60;99.90;;;;;;5044056;28;20024;-40
2023/06/15 10:10:43;;;;;;;3.78;3.33;;;22.60;99.90;;;;;;5041499;28;20105;-39
2023/06/15 10:13:15;;;;;;;4.38;3.47;;;22.70;99.90;;;;;;5043463;28;20116;-40
2023/06/15 10:15:45;;;;;;;4.85;3.60;;;23.00;99.90;;;;;;5041172;28;20091;-40
2023/06/15 10:18:13;;;;;;;4.47;4.07;;;22.40;99.90;;;;;;5036761;28;20029;-39
2023/06/15 10:20:40;;;;;;;5.60;3.70;;;21.90;99.90;;;;;;5040789;28;20092;-41
2023/06/15 10:23:10;;;;;;;5.30;3.63;;;21.40;99.90;;;;;;5039711;28;20029;-39
2023/06/15 10:25:36;;;;;;;4.68;3.60;;;21.30;99.90;;;;;;5039253;28;20041;-41
2023/06/15 10:28:09;;;;;;;3.88;3.58;;;21.50;99.90;;;;;;5045068;28;20052;-41
2023/06/15 10:30:44;;;;;;;4.00;3.55;;;21.40;99.90;;;;;;5041881;28;20032;-40
2023/06/15 10:33:39;;;;;;;3.67;3.38;;;21.30;99.90;;;;;;5044559;28;20914;-41
2023/06/15 10:36:10;;;;;;;5.47;3.60;;;21.20;99.90;;;;;;5025221;28;20052;-39
2023/06/15 10:39:10;;;;;;;4.15;3.70;;;21.80;99.90;;;;;;5042092;28;20021;-38
2023/06/15 10:41:36;;;;;;;4.25;3.55;;;22.40;99.90;;;;;;5037099;28;20029;-39
2023/06/15 10:44:05;;;;;;;6.47;3.70;;;22.40;99.90;;;;;;5039741;28;20024;-41
2023/06/15 10:46:35;;;;;;;4.65;4.00;;;22.10;99.90;;;;;;5040074;28;20045;-39
2023/06/15 10:49:06;;;;;;;4.45;3.72;;;21.90;99.90;;;;;;5038348;28;20082;-41
2023/06/15 10:51:36;;;;;;;4.35;3.58;;;22.10;99.90;;;;;;5042653;28;20029;-40
2023/06/15 10:54:18;;;;;;;4.78;3.70;;;22.50;99.90;;;;;;5021281;28;20022;-39
2023/06/15 10:56:53;;;;;;;3.83;3.40;;;23.00;99.90;;;;;;5042005;28;20025;-40
2023/06/15 10:59:48;;;;;;;5.95;4.07;;;23.40;99.90;;;;;;5042479;28;20052;-38
2023/06/15 11:02:31;;;;;;;4.03;3.50;;;23.30;99.90;;;;;;5025885;28;20041;-39
2023/06/15 11:05:05;;;;;;;8.60;3.72;;;23.70;99.90;;;;;;5039888;28;20029;-40
2023/06/15 11:07:36;;;;;;;3.85;3.30;;;24.00;99.90;;;;;;5043152;28;20025;-41
2023/06/15 11:10:09;;;;;;;3.90;3.40;;;23.90;99.90;;;;;;5037265;28;20038;-32
2023/06/15 11:12:43;;;;;;;3.78;3.33;;;24.20;99.90;;;;;;5041403;28;20036;-34
2023/06/15 11:15:12;;;;;;;3.90;3.50;;;24.20;99.90;;;;;;5039959;28;20117;-31
2023/06/15 11:17:56;;;;;;;3.92;3.47;;;24.20;99.90;;;;;;5039134;28;20033;-40
2023/06/15 11:20:47;;;;;;;3.80;3.50;;;23.60;99.90;;;;;;5044382;28;20527;-36
2023/06/15 11:23:18;;;;;;;3.42;3.13;;;23.80;99.90;;;;;;5043249;28;20040;-33
2023/06/15 11:25:46;;;;;;;3.40;3.10;;;24.00;99.90;;;;;;5041208;28;20037;-34
2023/06/15 11:28:15;;;;;;;;;;;24.50;99.90;;;;;;5046797;28;20036;-33
2023/06/15 11:30:42;;;;;;;4.70;3.63;;;24.10;99.90;;;;;;5044692;28;19917;-37
2023/06/15 11:33:12;;;;;;;3.70;3.40;;;23.60;99.90;;;;;;5036923;28;20521;-35
2023/06/15 11:35:38;;;;;;;6.75;3.40;;;23.20;99.90;;;;;;5044340;28;20102;-33
2023/06/15 11:38:08;;;;;;;7.00;3.70;;;22.90;99.90;;;;;;5043291;28;20037;-33
2023/06/15 11:40:34;;;;;;;3.78;3.25;;;22.70;99.90;;;;;;5043915;28;20590;-36
2023/06/15 11:43:02;;;;;;;5.45;3.60;;;22.60;99.90;;;;;;5039671;28;20367;-34
2023/06/15 11:45:28;;;;;;;3.50;3.20;;;22.30;99.90;;;;;;5040385;28;20052;-33
2023/06/15 11:47:54;;;;;;;3.80;3.50;;;22.00;99.90;;;;;;5037918;28;20510;-34
2023/06/15 11:50:22;;;;;;;3.47;3.17;;;21.90;99.90;;;;;;5037338;28;20017;-36
2023/06/15 11:52:48;;;;;;;4.55;3.53;;;22.10;99.90;;;;;;5039422;28;20265;-33
2023/06/15 11:55:16;;;;;;;3.95;3.63;;;22.30;99.90;;;;;;5040085;28;20059;-33
2023/06/15 11:57:44;;;;;;;;;;;22.50;99.90;;;;;;5040573;28;20024;-36
2023/06/15 12:00:12;;;;;;;3.35;3.00;;;22.40;99.90;;;;;;5038208;28;20373;-35
2023/06/15 12:02:40;;;;;;;4.18;3.28;;;22.70;99.90;;;;;;5039277;28;20094;-34
2023/06/15 12:05:06;;;;;;;3.78;3.40;;;22.70;99.90;;;;;;5042307;28;20032;-36
2023/06/15 12:07:32;;;;;;;3.38;3.08;;;22.70;99.90;;;;;;5039093;28;20025;-34
2023/06/15 12:10:02;;;;;;;4.20;3.38;;;22.50;99.90;;;;;;5040718;28;20482;-31
2023/06/15 12:12:30;;;;;;;3.42;3.00;;;22.60;99.90;;;;;;5037135;28;20037;-35
2023/06/15 12:14:56;;;;;;;4.00;3.60;;;23.00;99.90;;;;;;5041153;28;20025;-33
2023/06/15 12:17:36;;;;;;;3.80;3.20;;;23.40;99.90;;;;;;5041338;28;20111;-33
2023/06/15 12:20:09;;;;;;;3.78;3.47;;;23.30;99.90;;;;;;5040846;28;20025;-34
2023/06/15 12:22:46;;;;;;;5.38;3.83;;;22.80;99.90;;;;;;5039596;28;20029;-33
2023/06/15 12:25:13;;;;;;;4.07;2.97;;;22.70;99.90;;;;;;5038496;28;20036;-31
2023/06/15 12:27:46;;;;;;;4.45;3.20;;;22.80;99.90;;;;;;5028412;28;20268;-43
2023/06/15 12:30:13;;;;;;;4.50;3.70;;;23.10;99.90;;;;;;5044169;28;20413;-32
2023/06/15 12:32:49;;;;;;;4.83;3.40;;;23.50;99.90;;;;;;5034072;28;20090;-34
2023/06/15 12:35:31;;;;;;;3.60;3.30;;;23.80;99.90;;;;;;5042951;28;20041;-32
2023/06/15 12:37:57;;;;;;;5.78;3.65;;;24.10;99.90;;;;;;5044056;28;20028;-32
2023/06/15 12:40:23;;;;;;;3.80;3.45;;;24.20;99.90;;;;;;5034234;28;20032;-34
2023/06/15 12:42:59;;;;;;;3.90;3.50;;;23.80;99.90;;;;;;5044028;28;20035;-35
2023/06/15 12:45:26;;;;;;;6.35;3.25;;;23.70;99.90;;;;;;5040885;28;20789;-33
2023/06/15 12:47:52;;;;;;;3.85;3.50;;;23.80;99.90;;;;;;5038764;28;20573;-31
2023/06/15 12:50:17;;;;;;;3.90;3.50;;;23.60;99.90;;;;;;5036305;28;20029;-32